.
WxDataArchive / Data Records for 2008-04-09
2008-04-08 April 2008 2008-04-10

Data Records for Wednesday, 09 April 2008

Time	Temp	Chill	HIndex	Humid	Dewpt	 Wind 	HiWind	WindDir	Rain 	Barom 
-----	----	-----	------	-----	-----	------	------	-------	-----	----- 
00:00	65.6	65.6	65.6	65	53.5	3	10	90	0.00	29.766 
00:05	65.8	65.8	65.8	65	53.7	4	13	112	0.00	29.763 
00:10	65.6	65.6	65.6	65	53.5	3	12	68	0.00	29.762 
00:15	65.6	65.6	65.6	66	53.9	3	14	90	0.00	29.762 
00:20	65.6	65.6	65.6	66	53.9	3	12	112	0.00	29.761 
00:25	65.6	65.6	65.6	66	53.9	3	13	45	0.00	29.762 
00:30	65.6	65.6	65.6	66	53.9	2	7	90	0.00	29.756 
00:35	65.6	65.6	65.6	67	54.3	3	9	90	0.00	29.757 
00:40	65.6	65.6	65.6	67	54.3	4	18	112	0.00	29.758 
00:45	65.6	65.6	65.6	66	53.9	3	11	292	0.00	29.755 
00:50	65.6	65.6	65.6	67	54.3	2	7	248	0.00	29.753 
00:55	65.5	65.5	65.5	67	54.2	4	16	112	0.00	29.753 
01:00	65.6	65.6	65.6	67	54.3	3	10	90	0.00	29.754 
01:05	65.6	65.6	65.6	67	54.3	4	9	90	0.00	29.751 
01:10	65.6	65.6	65.6	67	54.3	3	11	338	0.00	29.750 
01:15	65.5	65.5	65.5	67	54.2	3	9	112	0.00	29.749 
01:20	65.5	65.5	65.5	67	54.2	3	10	90	0.00	29.749 
01:25	65.5	65.5	65.5	67	54.2	4	14	68	0.00	29.742 
01:30	65.3	65.3	65.3	67	54.1	2	7	112	0.00	29.745 
01:35	65.3	65.3	65.3	67	54.1	3	9	90	0.00	29.742 
01:40	65.3	65.3	65.3	67	54.1	3	12	225	0.00	29.743 
01:45	65.3	65.3	65.3	67	54.1	3	11	292	0.00	29.741 
01:50	65.3	65.3	65.3	67	54.1	3	6	68	0.00	29.746 
01:55	65.3	65.3	65.3	67	54.1	3	9	0	0.00	29.735 
02:00	65.3	65.3	65.3	67	54.1	3	10	90	0.00	29.733 
02:05	65.5	65.5	65.5	67	54.2	4	14	90	0.00	29.734 
02:10	65.5	65.5	65.5	69	55.1	4	13	248	0.00	29.735 
02:15	65.0	65.0	65.0	70	55.0	4	12	248	0.00	29.737 
02:20	65.0	65.0	65.0	70	55.0	5	13	270	0.00	29.745 
02:25	65.0	65.0	65.0	71	55.4	5	11	248	0.00	29.748 
02:30	64.7	64.7	64.7	73	55.8	6	18	270	0.00	29.759 
02:35	64.2	64.2	64.2	76	56.5	6	13	270	0.00	29.767 
02:40	62.7	62.7	62.7	82	57.1	7	16	270	0.02	29.776 
02:45	61.3	61.3	61.3	85	56.7	6	15	270	0.00	29.780 
02:50	60.4	60.4	60.4	86	56.2	7	16	270	0.01	29.782 
02:55	59.9	59.9	59.9	86	55.7	6	21	270	0.00	29.785 
03:00	59.6	59.6	59.6	85	55.1	5	13	270	0.00	29.785 
03:05	59.5	59.5	59.5	84	54.7	7	15	270	0.00	29.789 
03:10	59.0	59.0	59.0	84	54.2	5	9	270	0.00	29.799 
03:15	57.6	57.6	57.6	78	50.8	7	16	270	0.00	29.799 
03:20	56.7	56.7	56.7	78	49.9	6	14	270	0.00	29.801 
03:25	56.0	56.0	56.0	77	48.9	6	15	270	0.00	29.800 
03:30	55.6	55.6	55.6	78	48.8	5	13	270	0.00	29.808 
03:35	55.3	55.3	55.3	79	48.9	5	11	270	0.00	29.816 
03:40	54.8	54.8	54.8	80	48.7	6	13	270	0.00	29.824 
03:45	54.5	54.5	54.5	80	48.5	5	14	270	0.00	29.832 
03:50	53.8	53.8	53.8	78	47.1	6	13	270	0.00	29.833 
03:55	53.1	53.1	53.1	78	46.4	4	14	270	0.00	29.835 
04:00	52.5	52.5	52.5	80	46.5	5	11	270	0.00	29.836 
04:05	51.1	51.1	51.1	78	44.5	5	10	270	0.00	29.842 
04:10	49.8	48.0	49.8	77	42.9	5	12	270	0.00	29.850 
04:15	49.1	47.2	49.1	78	42.5	5	11	270	0.00	29.854 
04:20	48.6	45.5	48.6	78	42.1	7	13	270	0.00	29.856 
04:25	48.5	45.9	48.5	79	42.3	6	15	270	0.00	29.864 
04:30	48.3	45.1	48.3	79	42.1	7	16	270	0.00	29.871 
04:35	48.2	46.8	48.2	80	42.3	4	10	270	0.00	29.871 
04:40	48.0	48.0	48.0	80	42.1	3	10	270	0.00	29.871 
04:45	47.7	46.2	47.7	80	41.8	4	11	270	0.00	29.874 
04:50	47.7	45.5	47.7	81	42.2	5	12	270	0.00	29.878 
04:55	47.6	47.6	47.6	81	42.1	3	6	270	0.00	29.874 
05:00	47.6	47.6	47.6	81	42.1	3	7	248	0.00	29.884 
05:05	47.6	47.6	47.6	81	42.1	3	12	270	0.00	29.885 
05:10	47.4	47.4	47.4	81	41.9	3	9	270	0.00	29.889 
05:15	47.4	47.4	47.4	81	41.9	3	10	248	0.00	29.898 
05:20	47.4	47.4	47.4	82	42.2	3	9	270	0.00	29.902 
05:25	47.3	45.8	47.3	82	42.1	4	10	270	0.00	29.904 
05:30	47.3	47.3	47.3	82	42.1	2	10	270	0.00	29.907 
05:35	47.1	47.1	47.1	83	42.2	3	10	270	0.00	29.907 
05:40	47.0	47.0	47.0	83	42.1	2	10	270	0.00	29.908 
05:45	46.8	46.8	46.8	80	41.0	3	6	270	0.00	29.918 
05:50	46.7	46.7	46.7	78	40.2	3	5	270	0.00	29.921 
05:55	46.5	44.8	46.5	76	39.3	4	7	270	0.00	29.921 
06:00	46.4	46.4	46.4	77	39.6	2	7	270	0.00	29.923 
06:05	46.2	46.2	46.2	77	39.4	3	6	270	0.00	29.931 
06:10	46.1	44.4	46.1	77	39.3	4	7	270	0.00	29.937 
06:15	46.1	46.1	46.1	77	39.3	3	11	270	0.00	29.940 
06:20	46.0	46.0	46.0	77	39.2	3	6	270	0.00	29.949 
06:25	45.5	45.5	45.5	76	38.4	3	6	270	0.00	29.955 
06:30	45.2	43.3	45.2	77	38.4	4	9	270	0.00	29.955 
06:35	44.8	44.8	44.8	77	38.0	3	11	270	0.00	29.955 
06:40	44.6	44.6	44.6	78	38.2	2	5	248	0.00	29.956 
06:45	44.3	44.3	44.3	78	37.9	3	5	270	0.00	29.964 
06:50	44.3	44.3	44.3	78	37.9	2	7	248	0.00	29.969 
06:55	44.2	44.2	44.2	78	37.8	3	10	270	0.00	29.968 
07:00	44.1	42.1	44.1	78	37.7	4	10	270	0.00	29.971 
07:05	44.1	44.1	44.1	79	38.0	3	6	270	0.00	29.975 
07:10	44.1	42.1	44.1	78	37.7	4	10	270	0.00	29.975 
07:15	44.2	42.2	44.2	78	37.8	4	7	270	0.00	29.978 
07:20	44.1	42.1	44.1	77	37.4	4	13	270	0.00	29.980 
07:25	44.2	44.2	44.2	78	37.8	2	4	270	0.00	29.981 
07:30	44.1	44.1	44.1	78	37.7	3	5	270	0.00	29.984 
07:35	44.1	44.1	44.1	78	37.7	2	5	248	0.00	29.985 
07:40	44.2	44.2	44.2	78	37.8	2	6	248	0.00	29.988 
07:45	44.2	44.2	44.2	78	37.8	3	7	248	0.00	29.988 
07:50	44.2	44.2	44.2	79	38.1	2	5	292	0.00	29.989 
07:55	44.3	44.3	44.3	79	38.2	2	6	248	0.00	29.988 
08:00	44.8	44.8	44.8	78	38.4	1	7	248	0.00	29.987 
08:05	45.1	45.1	45.1	77	38.3	2	6	270	0.00	29.986 
08:10	45.1	45.1	45.1	77	38.3	2	7	270	0.00	29.986 
08:15	45.1	45.1	45.1	77	38.3	2	5	248	0.00	29.988 
08:20	45.2	45.2	45.2	77	38.4	2	5	248	0.00	29.988 
08:25	45.5	45.5	45.5	75	38.0	1	3	270	0.00	29.987 
08:30	45.7	45.7	45.7	74	37.9	2	5	248	0.00	29.989 
08:35	45.7	45.7	45.7	73	37.5	2	5	270	0.00	29.992 
08:40	45.5	45.5	45.5	73	37.4	2	5	270	0.00	29.995 
08:45	45.4	45.4	45.4	73	37.3	3	9	270	0.00	30.000 
08:50	45.2	45.2	45.2	74	37.4	2	5	248	0.00	30.002 
08:55	45.4	45.4	45.4	74	37.6	2	7	248	0.00	30.003 
09:00	45.4	43.6	45.4	73	37.3	4	10	248	0.00	30.004 
09:05	45.7	45.7	45.7	74	37.9	1	6	248	0.00	30.005 
09:10	45.7	45.7	45.7	73	37.5	2	5	248	0.00	30.007 
09:15	45.7	45.7	45.7	73	37.5	2	7	248	0.00	30.010 
09:20	45.7	45.7	45.7	73	37.5	3	6	248	0.00	30.011 
09:25	45.8	44.0	45.8	72	37.3	4	11	270	0.00	30.016 
09:30	45.8	44.0	45.8	71	36.9	4	8	248	0.00	30.019 
09:35	46.0	46.0	46.0	71	37.1	3	8	270	0.00	30.021 
09:40	46.0	46.0	46.0	71	37.1	2	5	248	0.00	30.024 
09:45	46.1	46.1	46.1	71	37.2	3	5	270	0.00	30.029 
09:50	46.1	46.1	46.1	71	37.2	2	5	248	0.00	30.033 
09:55	46.1	46.1	46.1	72	37.6	3	8	270	0.00	30.035 
10:00	45.7	45.7	45.7	73	37.5	3	6	270	0.00	30.035 
10:05	45.8	45.8	45.8	73	37.6	3	9	270	0.00	30.037 
10:10	45.8	45.8	45.8	73	37.6	3	10	270	0.00	30.041 
10:15	45.7	45.7	45.7	73	37.5	3	7	270	0.00	30.044 
10:20	45.8	45.8	45.8	73	37.6	3	9	248	0.00	30.049 
10:25	45.8	45.8	45.8	73	37.6	3	9	270	0.00	30.051 
10:30	45.7	45.7	45.7	73	37.5	3	9	270	0.00	30.052 
10:35	45.8	45.8	45.8	73	37.6	2	7	248	0.00	30.053 
10:40	46.0	46.0	46.0	73	37.8	2	5	248	0.00	30.053 
10:45	45.8	45.8	45.8	72	37.3	3	6	248	0.00	30.053 
10:50	45.7	43.9	45.7	71	36.8	4	10	270	0.00	30.053 
10:55	45.7	43.9	45.7	71	36.8	4	11	248	0.00	30.053 
11:00	46.0	46.0	46.0	71	37.1	2	6	270	0.00	30.055 
11:05	46.2	46.2	46.2	71	37.3	3	9	248	0.00	30.054 
11:10	46.7	46.7	46.7	70	37.4	2	4	248	0.00	30.057 
11:15	47.1	47.1	47.1	70	37.8	1	4	270	0.00	30.056 
11:20	46.8	46.8	46.8	70	37.5	3	7	248	0.00	30.059 
11:25	46.7	46.7	46.7	72	38.2	2	9	270	0.00	30.061 
11:30	46.8	46.8	46.8	71	37.9	3	9	248	0.00	30.059 
11:35	47.0	47.0	47.0	70	37.7	2	5	248	0.00	30.058 
11:40	47.1	47.1	47.1	70	37.8	3	10	248	0.00	30.059 
11:45	47.3	47.3	47.3	69	37.7	2	9	270	0.00	30.060 
11:50	47.6	47.6	47.6	69	37.9	2	5	270	0.00	30.059 
11:55	48.2	48.2	48.2	68	38.1	2	4	248	0.00	30.054 
12:00	48.2	48.2	48.2	66	37.4	2	4	270	0.00	30.056 
12:05	48.0	48.0	48.0	66	37.2	2	5	248	0.00	30.059 
12:10	47.7	47.7	47.7	67	37.3	3	8	248	0.00	30.061 
12:15	47.4	47.4	47.4	69	37.7	2	5	248	0.00	30.066 
12:20	47.1	47.1	47.1	71	38.2	3	5	248	0.00	30.066 
12:25	46.8	46.8	46.8	72	38.3	3	10	248	0.00	30.069 
12:30	46.7	46.7	46.7	72	38.2	3	9	248	0.00	30.072 
12:35	46.5	46.5	46.5	72	38.0	3	7	248	0.00	30.075 
12:40	46.8	46.8	46.8	73	38.6	2	6	248	0.00	30.079 
12:45	47.0	47.0	47.0	72	38.4	2	5	270	0.00	30.076 
12:50	47.4	47.4	47.4	71	38.5	2	7	248	0.00	30.074 
12:55	47.9	47.9	47.9	69	38.2	1	3	248	0.00	30.078 
13:00	48.2	48.2	48.2	67	37.8	1	5	338	0.00	30.079 
13:05	48.2	48.2	48.2	67	37.8	2	5	270	0.00	30.078 
13:10	48.3	48.3	48.3	67	37.9	2	6	248	0.00	30.081 
13:15	48.6	48.6	48.6	67	38.1	1	5	248	0.00	30.079 
13:20	48.6	48.6	48.6	66	37.8	2	4	292	0.00	30.081 
13:25	48.9	48.9	48.9	65	37.7	2	7	248	0.00	30.082 
13:30	48.9	48.9	48.9	64	37.3	2	5	270	0.00	30.086 
13:35	48.9	48.9	48.9	66	38.0	2	5	248	0.00	30.088 
13:40	49.1	49.1	49.1	65	37.8	2	5	270	0.00	30.090 
13:45	48.9	48.9	48.9	65	37.7	3	7	270	0.00	30.093 
13:50	49.4	49.4	49.4	65	38.1	3	11	338	0.00	30.089 
13:55	49.8	49.8	49.8	64	38.1	2	6	248	0.00	30.091 
14:00	49.9	49.9	49.9	65	38.6	2	7	248	0.00	30.093 
14:05	49.8	49.8	49.8	64	38.1	3	9	248	0.00	30.092 
14:10	49.4	49.4	49.4	63	37.3	3	7	270	0.00	30.092 
14:15	49.5	49.5	49.5	65	38.2	3	12	248	0.00	30.092 
14:20	49.1	49.1	49.1	67	38.6	3	9	270	0.00	30.097 
14:25	48.8	48.8	48.8	66	38.0	2	5	270	0.00	30.099 
14:30	48.8	48.8	48.8	68	38.7	2	5	270	0.00	30.100 
14:35	49.4	49.4	49.4	66	38.5	3	7	270	0.00	30.101 
14:40	49.2	49.2	49.2	66	38.3	3	10	248	0.00	30.100 
14:45	49.2	49.2	49.2	67	38.7	2	6	270	0.00	30.100 
14:50	49.1	49.1	49.1	66	38.2	2	5	270	0.00	30.100 
14:55	48.9	48.9	48.9	67	38.4	1	4	270	0.00	30.098 
15:00	48.9	48.9	48.9	66	38.0	1	5	338	0.00	30.098 
15:05	48.8	48.8	48.8	67	38.3	2	5	338	0.00	30.102 
15:10	48.9	48.9	48.9	66	38.0	1	4	270	0.00	30.100 
15:15	48.5	48.5	48.5	66	37.7	2	6	270	0.00	30.101 
15:20	48.5	48.5	48.5	66	37.7	2	4	338	0.00	30.103 
15:25	48.8	48.8	48.8	66	38.0	2	6	292	0.00	30.103 
15:30	48.8	48.8	48.8	66	38.0	1	4	315	0.00	30.101 
15:35	48.8	48.8	48.8	67	38.3	1	5	338	0.00	30.098 
15:40	49.4	49.4	49.4	67	38.9	1	4	315	0.00	30.097 
15:45	49.8	49.8	49.8	65	38.5	2	4	270	0.00	30.097 
15:50	49.6	49.6	49.6	63	37.5	1	4	338	0.00	30.095 
15:55	49.5	49.5	49.5	64	37.8	1	4	338	0.00	30.093 
16:00	49.1	49.1	49.1	65	37.8	1	4	270	0.00	30.099 
16:05	49.4	49.4	49.4	65	38.1	1	4	0	0.00	30.102 
16:10	49.9	49.9	49.9	65	38.6	1	5	0	0.00	30.098 
16:15	49.4	49.4	49.4	64	37.7	2	4	338	0.00	30.098 
16:20	49.1	49.1	49.1	64	37.5	1	2	315	0.00	30.099 
16:25	48.9	48.9	48.9	64	37.3	1	4	338	0.00	30.096 
16:30	48.9	48.9	48.9	64	37.3	1	4	338	0.00	30.095 
16:35	49.1	49.1	49.1	63	37.1	1	4	338	0.00	30.095 
16:40	49.1	49.1	49.1	63	37.1	1	4	315	0.00	30.094 
16:45	49.1	49.1	49.1	63	37.1	1	3	315	0.00	30.092 
16:50	49.4	49.4	49.4	64	37.7	0	2	315	0.00	30.093 
16:55	49.6	49.6	49.6	63	37.5	1	3	315	0.00	30.093 
17:00	49.9	49.9	49.9	62	37.4	1	3	248	0.00	30.101 
17:05	50.1	50.1	50.1	62	37.6	1	3	270	0.00	30.107 
17:10	49.9	49.9	49.9	62	37.4	1	4	338	0.00	30.112 
17:15	49.9	49.9	49.9	62	37.4	1	4	270	0.00	30.117 
17:20	49.9	49.9	49.9	60	36.6	1	4	315	0.00	30.112 
17:25	49.5	49.5	49.5	62	37.0	1	4	315	0.00	30.119 
17:30	49.2	49.2	49.2	62	36.7	1	3	338	0.00	30.123 
17:35	49.2	49.2	49.2	62	36.7	1	3	292	0.00	30.127 
17:40	49.4	49.4	49.4	62	36.9	0	1	292	0.00	30.136 
17:45	49.6	49.6	49.6	62	37.1	1	2	292	0.00	30.135 
17:50	49.5	49.5	49.5	61	36.6	1	2	292	0.00	30.127 
17:55	49.2	49.2	49.2	62	36.7	1	3	338	0.00	30.127 
18:00	49.1	49.1	49.1	62	36.6	1	4	0	0.00	30.129 
18:05	48.9	48.9	48.9	62	36.5	0	1	270	0.00	30.135 
18:10	48.8	48.8	48.8	62	36.4	0	1	270	0.00	30.133 
18:15	48.5	48.5	48.5	62	36.1	1	4	292	0.00	30.128 
18:20	48.2	48.2	48.2	63	36.2	0	1	270	0.00	30.127 
18:25	48.0	48.0	48.0	64	36.4	0	1	270	0.00	30.125 
18:30	47.9	47.9	47.9	64	36.3	0	4	270	0.00	30.128 
18:35	47.7	47.7	47.7	64	36.1	0	1	270	0.00	30.131 
18:40	47.6	47.6	47.6	65	36.4	0	1	270	0.00	30.130 
18:45	47.3	47.3	47.3	65	36.1	0	1	270	0.00	30.132 
18:50	47.0	47.0	47.0	65	35.9	0	0	---	0.00	30.131 
18:55	46.7	46.7	46.7	66	36.0	0	0	---	0.00	30.135 
19:00	46.4	46.4	46.4	66	35.7	0	0	---	0.00	30.139 
19:05	46.1	46.1	46.1	67	35.8	0	0	---	0.00	30.134 
19:10	45.8	45.8	45.8	68	35.8	0	0	---	0.00	30.140 
19:15	45.5	45.5	45.5	68	35.6	0	0	---	0.00	30.143 
19:20	45.2	45.2	45.2	69	35.6	0	0	---	0.00	30.145 
19:25	44.9	44.9	44.9	69	35.4	0	0	---	0.00	30.150 
19:30	44.6	44.6	44.6	70	35.4	0	0	---	0.00	30.151 
19:35	44.2	44.2	44.2	70	35.0	0	0	---	0.00	30.158 
19:40	43.9	43.9	43.9	71	35.1	0	0	---	0.00	30.164 
19:45	43.5	43.5	43.5	72	35.1	0	0	---	0.00	30.164 
19:50	43.1	43.1	43.1	73	35.0	0	0	---	0.00	30.165 
19:55	42.8	42.8	42.8	74	35.1	0	0	---	0.00	30.168 
20:00	42.5	42.5	42.5	75	35.1	0	0	---	0.00	30.167 
20:05	42.2	42.2	42.2	76	35.2	0	0	---	0.00	30.169 
20:10	42.1	42.1	42.1	77	35.4	0	1	270	0.00	30.171 
20:15	41.9	41.9	41.9	77	35.2	0	0	---	0.00	30.178 
20:20	41.9	41.9	41.9	77	35.2	0	0	---	0.00	30.178 
20:25	42.1	42.1	42.1	77	35.4	0	0	---	0.00	30.180 
20:30	42.1	42.1	42.1	77	35.4	0	0	---	0.00	30.182 
20:35	42.2	42.2	42.2	77	35.5	0	1	270	0.00	30.182 
20:40	42.2	42.2	42.2	77	35.5	0	1	270	0.00	30.181 
20:45	42.2	42.2	42.2	77	35.5	0	1	270	0.00	30.182 
20:50	42.1	42.1	42.1	77	35.4	0	1	270	0.00	30.183 
20:55	42.1	42.1	42.1	77	35.4	0	1	270	0.00	30.184 
21:00	42.1	42.1	42.1	76	35.1	0	2	338	0.00	30.182 
21:05	42.1	42.1	42.1	76	35.1	0	4	22	0.00	30.179 
21:10	41.9	41.9	41.9	76	34.9	0	2	68	0.00	30.181 
21:15	41.9	41.9	41.9	76	34.9	0	3	45	0.00	30.181 
21:20	41.6	41.6	41.6	76	34.6	0	1	45	0.00	30.179 
21:25	41.5	41.5	41.5	77	34.8	0	2	45	0.00	30.179 
21:30	41.2	41.2	41.2	77	34.5	0	2	45	0.00	30.177 
21:35	41.1	41.1	41.1	77	34.4	0	1	45	0.00	30.179 
21:40	40.9	40.9	40.9	78	34.6	0	2	45	0.00	30.178 
21:45	40.8	40.8	40.8	78	34.5	0	1	45	0.00	30.175 
21:50	40.5	40.5	40.5	78	34.2	0	1	45	0.00	30.173 
21:55	40.3	40.3	40.3	79	34.3	0	2	45	0.00	30.170 
22:00	40.2	40.2	40.2	79	34.2	0	1	68	0.00	30.169 
22:05	40.1	40.1	40.1	79	34.1	0	2	68	0.00	30.168 
22:10	39.9	39.9	39.9	79	33.9	0	2	68	0.00	30.168 
22:15	39.6	39.6	39.6	80	33.9	0	2	68	0.00	30.167 
22:20	39.5	39.5	39.5	80	33.9	0	2	68	0.00	30.164 
22:25	39.5	39.5	39.5	80	33.9	1	3	112	0.00	30.164 
22:30	39.5	39.5	39.5	80	33.9	0	1	112	0.00	30.163 
22:35	39.3	39.3	39.3	81	34.0	0	2	112	0.00	30.164 
22:40	39.2	39.2	39.2	81	33.9	0	1	112	0.00	30.161 
22:45	39.1	39.1	39.1	81	33.8	0	2	112	0.00	30.161 
22:50	39.1	39.1	39.1	81	33.8	0	1	112	0.00	30.166 
22:55	38.9	38.9	38.9	81	33.6	0	3	112	0.00	30.165 
23:00	38.9	38.9	38.9	81	33.6	0	3	45	0.00	30.166 
23:05	38.9	38.9	38.9	81	33.6	0	1	112	0.00	30.166 
23:10	38.8	38.8	38.8	81	33.5	0	1	112	0.00	30.166 
23:15	38.6	38.6	38.6	81	33.3	0	1	112	0.00	30.169 
23:20	38.5	38.5	38.5	82	33.5	0	1	112	0.00	30.169 
23:25	38.3	38.3	38.3	82	33.3	0	0	---	0.00	30.169 
23:30	38.0	38.0	38.0	82	33.0	0	0	---	0.00	30.173 
23:35	37.9	37.9	37.9	83	33.2	0	0	---	0.00	30.173 
23:40	37.5	37.5	37.5	82	32.5	0	0	---	0.00	30.173 
23:45	37.0	37.0	37.0	83	32.3	0	0	---	0.00	30.172 
23:50	36.8	36.8	36.8	84	32.4	0	0	---	0.00	30.172 
23:55	36.3	36.3	36.3	84	31.9	0	0	---	0.00	30.172 

CoCoRaHS
IN-AL-39
A2 Web Hosting
Creative Commons License
GoDaddy
Look for:

loaded 2017-12-11 06:42:08 • last modified 2010-11-18 10:43:29
Privacy PolicyDisclaimer
• wx.awcolley.com is powered by PmWiki v.2002016 •
• all content (unless otherwise noted) © 2017 A W Colley